Blanco, New Mexico
Current Conditions -  °F | °C
As of 7:53 PM on Friday 28 Nov 2014 (Local Time) from KFMN Reporting Station
Clear Clear  
Wind Chill: 30°   Ceiling: Unl
Heat Index: 36°   Visibility: 10mi
Dew Point: 13°   Wind: 8mph
Humidity: 39%   Direction: 60°ENE
Pressure: 30.05"   Gusts: NA
Location:  36.72°N, 107.83°W
Report Text: KFMN 290253Z 06007KT 10SM CLR 02/M11 A3005 RMK AO2 SLP191 T00221106 58004
Loading
Personal Weather Stations






























Interactive Weather Map New forecast layout! Learn more

10-Day Weather Forecast

Advertisements
Track Severe Weather on mobile